createdAt,value
2022-11-13T13:58:32.507Z,56.10
2022-11-13T14:01:27.839Z,56.95
2022-11-13T14:04:15.856Z,55.40
2022-11-13T14:07:03.727Z,56.05
2022-11-13T14:09:50.878Z,53.90
2022-11-13T14:12:41.702Z,53.17
2022-11-13T14:15:30.456Z,53.03
2022-11-13T14:18:18.366Z,53.22
2022-11-13T14:21:07.365Z,52.33
2022-11-13T14:23:54.473Z,45.72
2022-11-13T14:26:41.180Z,43.83
2022-11-13T14:29:35.865Z,41.47
2022-11-13T14:32:25.965Z,43.65
2022-11-13T14:35:20.346Z,42.10
2022-11-13T14:38:07.350Z,39.30
2022-11-13T14:40:54.317Z,39.90
2022-11-13T14:43:41.618Z,33.35
2022-11-13T14:46:33.136Z,37.42
2022-11-13T14:49:30.026Z,37.35
2022-11-13T14:52:24.761Z,36.22
2022-11-13T14:55:22.251Z,35.80
2022-11-13T14:58:14.209Z,30.98
2022-11-13T15:01:01.424Z,33.25
2022-11-13T15:03:49.167Z,32.47
2022-11-13T15:06:38.952Z,32.13
2022-11-13T15:09:26.654Z,31.88
2022-11-13T15:12:14.101Z,31.23
2022-11-13T15:15:01.626Z,31.45
2022-11-13T15:17:49.534Z,30.20
2022-11-13T15:20:37.023Z,30.50
2022-11-13T15:23:29.650Z,29.67
2022-11-13T15:26:19.458Z,28.67
2022-11-13T15:29:06.193Z,29.88
2022-11-13T15:31:53.469Z,30.42
2022-11-13T15:34:40.417Z,30.85
2022-11-13T15:37:27.069Z,31.30
2022-11-13T15:40:18.029Z,29.75
2022-11-13T15:43:05.591Z,29.23
2022-11-13T15:45:52.202Z,28.25
2022-11-13T15:48:38.913Z,29.48
2022-11-13T15:51:26.690Z,28.65
2022-11-13T15:54:17.817Z,28.98
2022-11-13T15:57:08.231Z,27.95
2022-11-13T15:59:55.020Z,27.33
2022-11-13T16:02:42.103Z,26.05
2022-11-13T16:05:50.059Z,27.05
2022-11-13T16:08:38.157Z,25.98
2022-11-13T16:11:25.778Z,26.55
2022-11-13T16:14:20.695Z,26.25
2022-11-13T16:17:13.547Z,25.83
2022-11-13T16:20:02.746Z,24.42
2022-11-13T16:22:50.119Z,24.88
2022-11-13T16:25:37.726Z,24.67
2022-11-13T16:28:25.512Z,24.63
2022-11-13T16:31:13.963Z,25.85
2022-11-13T16:34:02.161Z,32.05
2022-11-13T16:36:49.651Z,32.35
2022-11-13T16:39:37.593Z,34.75
2022-11-13T16:42:30.682Z,34.92
2022-11-13T16:45:18.262Z,36.05
2022-11-13T16:48:07.727Z,36.88
2022-11-13T16:50:55.681Z,36.47
2022-11-13T16:53:43.425Z,37.33
2022-11-13T16:56:31.465Z,37.20
2022-11-13T16:59:20.536Z,37.00
2022-11-13T17:02:14.070Z,35.28
2022-11-13T17:05:03.447Z,36.38
2022-11-13T17:07:51.970Z,37.10
2022-11-13T17:10:39.514Z,36.50
2022-11-13T17:13:27.185Z,37.20
2022-11-13T17:16:15.810Z,35.83
2022-11-13T17:19:04.149Z,38.22
2022-11-13T17:21:53.643Z,38.42
2022-11-13T17:24:41.977Z,38.78
2022-11-13T17:27:29.538Z,40.50
2022-11-13T17:30:17.803Z,40.85
2022-11-13T17:33:05.588Z,41.35
2022-11-13T17:35:56.569Z,41.33
2022-11-13T17:38:45.812Z,43.60
2022-11-13T17:41:34.411Z,43.85
2022-11-13T17:44:24.631Z,51.00
2022-11-13T17:47:11.836Z,50.90
2022-11-13T17:50:06.716Z,53.00
2022-11-13T17:52:54.970Z,52.70
2022-11-13T17:55:45.167Z,55.00
2022-11-13T17:58:32.406Z,56.67
2022-11-13T18:01:21.029Z,56.72
2022-11-13T18:04:07.813Z,56.95
2022-11-13T18:06:55.672Z,58.17
2022-11-13T18:09:43.197Z,58.65
2022-11-13T18:12:32.794Z,56.95
2022-11-13T18:15:20.038Z,56.50
2022-11-13T18:18:08.087Z,56.72
2022-11-13T18:20:55.207Z,55.28
2022-11-13T18:23:42.751Z,53.72
2022-11-13T18:26:30.809Z,53.78
2022-11-13T18:29:19.433Z,53.80
2022-11-13T18:32:06.645Z,52.58
2022-11-13T18:34:54.536Z,52.40
2022-11-13T18:37:41.675Z,52.72
2022-11-13T18:40:28.957Z,57.15
2022-11-13T18:43:16.960Z,55.95
2022-11-13T18:46:06.225Z,56.75
2022-11-13T18:48:53.339Z,60.15
2022-11-13T18:51:40.804Z,59.00
2022-11-13T18:54:28.323Z,61.20
2022-11-13T18:57:15.751Z,61.13
2022-11-13T19:00:03.133Z,62.72
2022-11-13T19:02:53.354Z,61.92
2022-11-13T19:05:44.917Z,60.55
2022-11-13T19:08:35.054Z,62.15
2022-11-13T19:11:24.492Z,66.50
2022-11-13T19:14:12.190Z,65.60
2022-11-13T19:16:59.433Z,68.78
2022-11-13T19:19:48.381Z,74.18
2022-11-13T19:22:35.945Z,74.55
2022-11-13T19:25:23.684Z,77.72
2022-11-13T19:28:11.206Z,66.43
2022-11-13T19:30:58.335Z,71.07
2022-11-13T19:33:46.163Z,71.63
2022-11-13T19:36:35.029Z,70.22
2022-11-13T19:39:22.095Z,59.83
2022-11-13T19:42:09.587Z,59.08
2022-11-13T19:44:56.693Z,59.30
2022-11-13T19:47:46.095Z,59.10
2022-11-13T19:50:33.307Z,60.00
2022-11-13T19:53:22.981Z,58.85
2022-11-13T19:56:10.405Z,56.97
2022-11-13T19:58:58.054Z,59.75
2022-11-13T20:01:45.866Z,56.70
2022-11-13T20:04:33.463Z,56.25
2022-11-13T20:07:20.746Z,55.92
2022-11-13T20:10:11.475Z,55.88
2022-11-13T20:12:59.019Z,54.33
2022-11-13T20:15:46.381Z,55.20
2022-11-13T20:18:33.646Z,55.22
2022-11-13T20:21:25.320Z,53.78
2022-11-13T20:24:12.780Z,53.55
2022-11-13T20:27:01.513Z,54.05
2022-11-13T20:29:49.093Z,52.83
2022-11-13T20:32:38.541Z,53.00
2022-11-13T20:35:25.482Z,51.60
2022-11-13T20:38:12.911Z,53.33
2022-11-13T20:40:59.850Z,51.45
2022-11-13T20:43:49.312Z,51.22
2022-11-13T20:46:36.375Z,51.00
2022-11-13T20:49:24.005Z,49.50
2022-11-13T20:52:12.353Z,49.33
2022-11-13T20:54:59.406Z,49.78
2022-11-13T20:57:46.906Z,50.67
2022-11-13T21:00:35.495Z,48.83
2022-11-13T21:03:23.186Z,47.17
2022-11-13T21:06:10.917Z,49.00
2022-11-13T21:08:58.300Z,47.58
2022-11-13T21:11:46.241Z,47.42
2022-11-13T21:14:33.530Z,46.78
2022-11-13T21:17:22.242Z,46.70
2022-11-13T21:20:10.969Z,48.67
2022-11-13T21:22:58.909Z,46.25
2022-11-13T21:25:46.623Z,45.85
2022-11-13T21:28:34.197Z,46.10
2022-11-13T21:31:22.006Z,45.85
2022-11-13T21:34:14.262Z,44.65
2022-11-13T21:37:01.735Z,45.80
2022-11-13T21:39:48.844Z,43.67
2022-11-13T21:42:36.195Z,43.97
2022-11-13T21:45:24.105Z,43.38
2022-11-13T21:48:11.317Z,43.13
2022-11-13T21:51:01.384Z,42.22
2022-11-13T21:53:48.332Z,42.78
2022-11-13T21:56:38.150Z,42.08
2022-11-13T21:59:25.162Z,41.22
2022-11-13T22:02:12.551Z,42.53
2022-11-13T22:05:00.047Z,40.80
2022-11-13T22:07:48.789Z,40.35
2022-11-13T22:10:35.816Z,41.88
2022-11-13T22:13:23.444Z,40.78
2022-11-13T22:16:11.120Z,41.53
2022-11-13T22:18:59.202Z,40.00
2022-11-13T22:21:46.478Z,40.67
2022-11-13T22:24:35.429Z,40.28
2022-11-13T22:27:22.677Z,38.92
2022-11-13T22:30:11.026Z,38.78
2022-11-13T22:32:58.465Z,39.22
2022-11-13T22:35:45.494Z,38.63
2022-11-13T22:38:32.900Z,38.05
2022-11-13T22:41:23.797Z,37.63
2022-11-13T22:44:13.643Z,37.17
2022-11-13T22:47:01.056Z,36.58
2022-11-13T22:49:47.913Z,37.15
2022-11-13T22:52:35.200Z,36.65
2022-11-13T22:55:22.453Z,36.88
2022-11-13T22:58:12.028Z,37.35
2022-11-13T23:01:05.686Z,36.78
2022-11-13T23:03:53.225Z,36.15
2022-11-13T23:06:40.730Z,35.58
2022-11-13T23:09:29.526Z,32.88
2022-11-13T23:12:16.336Z,35.53
2022-11-13T23:15:05.781Z,35.15
2022-11-13T23:17:53.410Z,35.10
2022-11-13T23:20:41.199Z,33.00
2022-11-13T23:23:28.585Z,34.05
2022-11-13T23:26:16.133Z,34.17
2022-11-13T23:29:03.780Z,33.65
2022-11-13T23:31:52.973Z,33.60
2022-11-13T23:34:58.556Z,33.35
2022-11-13T23:37:48.262Z,32.58
2022-11-13T23:40:35.753Z,32.88
2022-11-13T23:43:24.857Z,32.08
2022-11-13T23:46:20.137Z,32.40
2022-11-13T23:49:09.058Z,31.50
2022-11-13T23:51:56.253Z,32.25
2022-11-13T23:54:43.949Z,31.70
2022-11-13T23:57:31.261Z,31.17
